Parkville, Minnesota
Current Conditions -  °F | °C
As of 1:31 AM on Thursday 18 Dec 2014 (Local Time) from KEVM Reporting Station
Light Snow Light Snow  
Wind Chill:   Ceiling: 1100
Heat Index: 10°   Visibility: 7mi
Dew Point:   Wind: 5mph
Humidity: 85%   Direction: 40°NE
Pressure: 30.31"   Gusts: NA
Location:  47.4996°N, 92.6723°W
Report Text: KEVM 180731Z AUTO 04004KT 7SM -SN OVC011 M12/M14 A3031 RMK AO2
Loading
Personal Weather Stations






























Interactive Weather Map New forecast layout! Learn more

10-Day Weather Forecast

Advertisements
Track Severe Weather on mobile